Time;durP1;ratioP1;P1;durP2;ratioP2;P2;SDS_P1;SDS_P2;PMS_P1;PMS_P2;Temp;Humidity;BMP_temperature;BMP_pressure;BME280_temperature;BME280_humidity;BME280_pressure;Samples;Min_cycle;Max_cycle;Signal;HPM_P1;HPM_P2
2022/01/11 00:02:06;;;;;;;108.80;44.10;;;;;;;-7.30;81.76;102053.05;87574;1284;80786;-68
2022/01/11 00:04:16;;;;;;;102.60;45.00;;;;;;;-7.27;81.77;102054.89;87548;1284;81035;-57
2022/01/11 00:06:31;;;;;;;106.80;43.40;;;;;;;-7.24;81.74;102057.08;87552;1284;99362;-58
2022/01/11 00:08:45;;;;;;;102.60;44.50;;;;;;;-7.25;81.89;102062.71;87573;1284;88140;-57
2022/01/11 00:10:54;;;;;;;106.90;44.00;;;;;;;-7.24;81.76;102063.23;87558;1284;94069;-58
2022/01/11 00:13:02;;;;;;;100.30;43.20;;;;;;;-7.23;81.77;102067.73;87572;1284;79523;-57
2022/01/11 00:15:10;;;;;;;96.40;40.70;;;;;;;-7.18;81.85;102069.39;87561;1284;81951;-57
2022/01/11 00:17:16;;;;;;;95.10;43.30;;;;;;;-7.18;81.95;102062.20;87591;1283;100157;-57
2022/01/11 00:19:21;;;;;;;89.70;39.70;;;;;;;-7.18;81.89;102064.46;87578;1284;88758;-69
2022/01/11 00:21:28;;;;;;;93.20;39.90;;;;;;;-7.16;81.90;102061.98;87557;1284;95176;-67
2022/01/11 00:26:00;;;;;;;83.30;37.90;;;;;;;-7.21;81.79;102065.95;87561;1284;81227;-69
2022/01/11 00:28:07;;;;;;;95.10;39.20;;;;;;;-7.20;81.86;102068.71;87550;1284;100115;-68
2022/01/11 00:30:16;;;;;;;90.20;38.70;;;;;;;-7.22;81.80;102067.20;87597;1284;87459;-57
2022/01/11 00:32:35;;;;;;;92.70;40.20;;;;;;;-7.19;81.85;102068.02;87569;1284;94229;-57
2022/01/11 00:34:48;;;;;;;85.90;37.40;;;;;;;-7.22;81.69;102068.58;87432;1285;79363;-57
2022/01/11 00:36:57;;;;;;;83.80;37.10;;;;;;;-7.27;81.59;102069.05;87598;1284;81330;-57
2022/01/11 00:39:03;;;;;;;85.20;37.50;;;;;;;-7.31;81.69;102068.46;87543;1284;99937;-58
2022/01/11 00:41:15;;;;;;;84.40;38.20;;;;;;;-7.31;81.57;102066.52;87384;1287;87793;-57
2022/01/11 00:43:24;;;;;;;80.20;36.60;;;;;;;-7.34;81.66;102070.27;87453;1285;95439;-58
2022/01/11 00:45:30;;;;;;;85.70;36.20;;;;;;;-7.34;81.61;102074.30;87525;1284;78587;-70
2022/01/11 00:47:37;;;;;;;82.50;36.30;;;;;;;-7.36;81.68;102075.23;87562;1284;81505;-69
2022/01/11 00:49:45;;;;;;;72.80;34.70;;;;;;;-7.36;81.53;102074.52;87560;1284;100172;-68
2022/01/11 00:51:52;;;;;;;76.80;35.50;;;;;;;-7.33;81.56;102072.19;87522;1284;89506;-67
2022/01/11 00:53:58;;;;;;;79.30;35.90;;;;;;;-7.34;81.64;102074.30;87584;1284;96103;-62
2022/01/11 00:56:04;;;;;;;81.00;34.80;;;;;;;-7.32;81.57;102071.98;87563;1284;79058;-58
2022/01/11 00:58:10;;;;;;;80.20;35.70;;;;;;;-7.36;81.58;102074.52;87569;1284;83355;-58
2022/01/11 01:00:17;;;;;;;78.20;34.80;;;;;;;-7.37;81.52;102076.83;87576;1284;99777;-58
2022/01/11 01:02:23;;;;;;;79.60;36.30;;;;;;;-7.37;81.53;102071.58;87593;1284;88860;-58
2022/01/11 01:04:29;;;;;;;75.10;33.50;;;;;;;-7.42;81.52;102074.13;87374;1287;94361;-67
2022/01/11 01:06:37;;;;;;;76.50;35.60;;;;;;;-7.43;81.54;102074.34;87415;1286;80785;-67
2022/01/11 01:08:46;;;;;;;73.20;34.00;;;;;;;-7.46;81.69;102071.95;87553;1284;81441;-67
2022/01/11 01:10:52;;;;;;;78.30;35.70;;;;;;;-7.45;81.57;102074.38;87595;1284;100276;-67
2022/01/11 01:13:00;;;;;;;73.90;35.20;;;;;;;-7.45;81.52;102075.08;87569;1283;88626;-68
2022/01/11 01:15:08;;;;;;;76.60;34.90;;;;;;;-7.47;81.51;102075.48;87534;1284;95609;-66
2022/01/11 01:17:17;;;;;;;80.10;35.00;;;;;;;-7.47;81.52;102076.88;87563;1284;81380;-69
2022/01/11 01:19:26;;;;;;;73.10;34.10;;;;;;;-7.44;81.45;102076.28;87590;1284;83742;-69
2022/01/11 01:21:37;;;;;;;76.00;33.40;;;;;;;-7.43;81.42;102078.35;87399;1286;99064;-68
2022/01/11 01:23:44;;;;;;;75.60;35.00;;;;;;;-7.41;81.51;102078.66;87576;1284;88270;-69
2022/01/11 01:25:51;;;;;;;77.40;34.60;;;;;;;-7.42;81.51;102077.98;87542;1284;95814;-58
2022/01/11 01:27:57;;;;;;;79.90;35.00;;;;;;;-7.40;81.55;102083.36;87563;1284;81201;-57
2022/01/11 01:30:05;;;;;;;84.40;36.60;;;;;;;-7.44;81.44;102082.58;87607;1284;82941;-68
2022/01/11 01:32:11;;;;;;;76.70;34.70;;;;;;;-7.46;81.58;102084.54;87552;1284;97506;-69
2022/01/11 01:34:17;;;;;;;75.40;33.90;;;;;;;-7.47;81.48;102086.33;87580;1284;87630;-69
2022/01/11 01:36:27;;;;;;;75.30;36.40;;;;;;;-7.49;81.43;102092.33;87370;1287;93567;-70
2022/01/11 01:38:33;;;;;;;78.00;35.90;;;;;;;-7.50;81.38;102090.43;87397;1287;81791;-68
2022/01/11 01:40:44;;;;;;;72.00;33.70;;;;;;;-7.52;81.32;102095.53;87583;1284;82847;-58
2022/01/11 01:42:54;;;;;;;75.30;34.40;;;;;;;-7.57;81.31;102095.29;87571;1284;100005;-57
2022/01/11 01:45:04;;;;;;;82.50;35.10;;;;;;;-7.58;81.22;102096.02;87566;1284;88951;-67
2022/01/11 01:47:12;;;;;;;77.30;34.50;;;;;;;-7.64;81.13;102097.36;87411;1286;93688;-67
2022/01/11 01:49:21;;;;;;;78.30;35.10;;;;;;;-7.69;81.14;102101.85;87570;1284;78615;-57
2022/01/11 01:51:27;;;;;;;78.50;36.40;;;;;;;-7.69;81.20;102105.19;87560;1284;83768;-57
2022/01/11 01:53:35;;;;;;;75.90;34.30;;;;;;;-7.66;81.16;102105.46;87588;1284;98451;-56
2022/01/11 01:55:44;;;;;;;77.50;35.40;;;;;;;-7.67;81.13;102110.92;87593;1284;88681;-68
2022/01/11 01:57:53;;;;;;;77.50;36.10;;;;;;;-7.70;81.21;102116.74;87571;1284;95251;-69
2022/01/11 02:00:03;;;;;;;87.30;37.30;;;;;;;-7.72;81.08;102112.95;87578;1284;79840;-69
2022/01/11 02:02:13;;;;;;;86.10;36.70;;;;;;;-7.78;81.07;102117.61;87585;1284;82488;-68
2022/01/11 02:04:20;;;;;;;95.50;39.20;;;;;;;-7.83;81.07;102119.98;87571;1284;100043;-68
2022/01/11 02:06:28;;;;;;;82.00;36.90;;;;;;;-7.85;80.95;102117.76;87559;1284;89401;-69
2022/01/11 02:08:34;;;;;;;81.80;37.20;;;;;;;-7.89;81.03;102116.95;87559;1284;95940;-67
2022/01/11 02:10:40;;;;;;;79.30;36.70;;;;;;;-7.91;81.11;102117.16;87575;1284;79012;-68
2022/01/11 02:12:46;;;;;;;83.00;36.50;;;;;;;-7.90;80.94;102115.75;87588;1284;81565;-69
2022/01/11 02:14:55;;;;;;;85.50;37.60;;;;;;;-7.90;81.12;102122.21;87583;1284;98168;-69
2022/01/11 02:17:01;;;;;;;83.10;37.50;;;;;;;-7.91;81.12;102123.11;87562;1284;89193;-70
2022/01/11 02:19:07;;;;;;;84.70;38.20;;;;;;;-7.88;81.13;102123.58;87540;1284;95170;-58
2022/01/11 02:21:13;;;;;;;84.70;37.30;;;;;;;-7.86;81.17;102122.31;87568;1284;79671;-59
2022/01/11 02:23:20;;;;;;;91.60;38.00;;;;;;;-7.88;81.10;102121.31;87600;1284;81256;-58
2022/01/11 02:25:27;;;;;;;87.20;38.00;;;;;;;-7.91;81.08;102123.30;87628;1284;98809;-60
2022/01/11 02:27:33;;;;;;;87.70;39.30;;;;;;;-7.89;81.26;102126.40;87592;1284;88716;-57
2022/01/11 02:29:40;;;;;;;82.70;36.90;;;;;;;-7.88;81.09;102124.98;87608;1284;93690;-67
2022/01/11 02:31:45;;;;;;;77.60;35.30;;;;;;;-7.89;81.24;102125.70;87587;1284;79831;-67
2022/01/11 02:33:54;;;;;;;75.10;35.60;;;;;;;-7.87;81.20;102130.91;87550;1284;82527;-69
2022/01/11 02:36:01;;;;;;;81.20;35.40;;;;;;;-7.86;81.17;102133.33;87587;1284;97786;-57
2022/01/11 02:38:07;;;;;;;83.30;37.40;;;;;;;-7.85;81.08;102133.83;87400;1287;89489;-57
2022/01/11 02:40:16;;;;;;;78.80;34.80;;;;;;;-7.86;81.03;102137.52;87404;1285;95094;-57
2022/01/11 02:42:23;;;;;;;82.80;35.60;;;;;;;-7.88;81.02;102135.83;87589;1284;79714;-57
2022/01/11 02:44:32;;;;;;;72.40;33.80;;;;;;;-7.90;81.06;102135.15;87558;1284;84088;-57
2022/01/11 02:46:40;;;;;;;78.90;35.00;;;;;;;-7.91;81.18;102136.23;87436;1285;100022;-57
2022/01/11 02:48:46;;;;;;;76.50;33.90;;;;;;;-7.92;81.17;102141.33;87552;1283;88117;-58
2022/01/11 02:50:51;;;;;;;76.30;34.10;;;;;;;-7.94;81.12;102142.05;87552;1284;95234;-68
2022/01/11 02:52:58;;;;;;;74.40;35.10;;;;;;;-7.94;81.23;102141.89;87570;1284;78954;-67
2022/01/11 02:55:09;;;;;;;76.10;34.30;;;;;;;-7.96;81.18;102144.02;87572;1284;81016;-67
2022/01/11 02:57:16;;;;;;;75.00;34.70;;;;;;;-7.98;81.22;102141.95;87582;1284;98641;-67
2022/01/11 02:59:22;;;;;;;80.60;34.90;;;;;;;-7.95;81.30;102143.48;87575;1284;89128;-57
2022/01/11 03:01:28;;;;;;;73.40;35.00;;;;;;;-7.96;81.26;102146.29;87538;1284;92922;-57
2022/01/11 03:03:34;;;;;;;70.80;32.40;;;;;;;-7.95;81.17;102145.40;87574;1284;80145;-57
2022/01/11 03:05:48;;;;;;;71.80;32.40;;;;;;;-7.98;81.17;102150.17;87588;1284;81779;-57
2022/01/11 03:07:54;;;;;;;75.10;34.00;;;;;;;-7.99;81.23;102149.32;87555;1284;99259;-57
2022/01/11 03:10:11;;;;;;;70.00;32.70;;;;;;;-7.95;81.25;102150.11;87326;1287;90109;-57
2022/01/11 03:12:17;;;;;;;67.90;33.90;;;;;;;-7.96;81.19;102154.33;87534;1284;95015;-57
2022/01/11 03:14:23;;;;;;;69.50;32.30;;;;;;;-7.97;81.22;102154.71;87581;1284;80297;-58
2022/01/11 03:16:29;;;;;;;68.00;30.80;;;;;;;-7.95;81.30;102151.86;87584;1284;83207;-57
2022/01/11 03:18:36;;;;;;;67.40;30.60;;;;;;;-7.99;81.25;102153.86;87434;1285;98608;-57
2022/01/11 03:20:44;;;;;;;64.60;31.50;;;;;;;-7.98;81.29;102158.74;87252;1287;90211;-62
2022/01/11 03:22:50;;;;;;;63.20;30.30;;;;;;;-8.02;81.15;102157.61;87555;1284;93637;-58
2022/01/11 03:24:59;;;;;;;69.50;31.40;;;;;;;-8.09;81.22;102162.63;87580;1284;81170;-67
2022/01/11 03:27:07;;;;;;;68.60;32.00;;;;;;;-8.09;81.37;102162.27;87569;1284;82984;-69
2022/01/11 03:29:13;;;;;;;76.10;33.50;;;;;;;-8.04;81.29;102166.38;87565;1284;100370;-68
2022/01/11 03:31:23;;;;;;;65.70;32.10;;;;;;;-8.04;81.16;102166.73;87569;1284;89636;-67
2022/01/11 03:33:30;;;;;;;70.90;32.80;;;;;;;-8.11;81.19;102164.06;87551;1284;95225;-67
2022/01/11 03:35:37;;;;;;;68.10;32.60;;;;;;;-8.12;81.13;102170.36;87569;1284;79771;-68
2022/01/11 03:37:48;;;;;;;80.90;36.30;;;;;;;-8.08;81.20;102168.73;87575;1284;82563;-68
2022/01/11 03:39:57;;;;;;;86.90;36.90;;;;;;;-8.04;81.12;102167.42;87567;1284;98860;-69
2022/01/11 03:42:03;;;;;;;80.40;36.40;;;;;;;-8.10;81.01;102168.59;87407;1285;87826;-70
2022/01/11 03:44:09;;;;;;;76.50;33.90;;;;;;;-8.13;81.04;102163.23;87569;1284;93198;-68
2022/01/11 03:46:18;;;;;;;76.10;35.30;;;;;;;-8.15;81.18;102164.16;87565;1284;81800;-70
2022/01/11 03:48:24;;;;;;;76.80;35.20;;;;;;;-8.16;81.16;102167.14;87560;1284;81495;-68
2022/01/11 03:50:31;;;;;;;69.70;33.50;;;;;;;-8.15;81.02;102167.28;87588;1284;98903;-68
2022/01/11 03:52:37;;;;;;;76.80;34.50;;;;;;;-8.15;81.16;102168.86;87439;1285;86265;-66
2022/01/11 03:55:02;;;;;;;72.30;32.70;;;;;;;-8.16;81.12;102172.90;87562;1284;93635;-67
2022/01/11 03:57:08;;;;;;;70.70;32.50;;;;;;;-8.13;81.20;102176.17;87410;1285;78870;-67
2022/01/11 03:59:18;;;;;;;67.50;31.30;;;;;;;-8.13;81.13;102178.27;87566;1284;80279;-67
2022/01/11 04:01:26;;;;;;;67.80;30.90;;;;;;;-8.11;81.03;102177.35;87572;1284;99357;-67
2022/01/11 04:03:32;;;;;;;71.00;33.30;;;;;;;-8.09;80.86;102176.27;87380;1284;272383;-67
2022/01/11 04:05:41;;;;;;;71.40;32.10;;;;;;;-8.16;81.10;102180.24;87554;1284;94206;-68
2022/01/11 04:07:46;;;;;;;68.10;32.60;;;;;;;-8.22;81.06;102186.64;87574;1284;81115;-68
2022/01/11 04:09:54;;;;;;;72.00;32.70;;;;;;;-8.19;81.06;102182.05;87622;1284;83342;-68
2022/01/11 04:12:00;;;;;;;77.80;33.00;;;;;;;-8.21;80.95;102188.89;87579;1284;100236;-68
2022/01/11 04:14:06;;;;;;;72.20;33.90;;;;;;;-8.17;81.03;102189.68;87603;1284;88522;-57
2022/01/11 04:16:16;;;;;;;71.30;33.20;;;;;;;-8.14;80.96;102194.70;87559;1284;95843;-57
2022/01/11 04:18:22;;;;;;;74.80;33.70;;;;;;;-8.19;80.78;102192.52;87587;1284;81811;-57
2022/01/11 04:20:28;;;;;;;74.80;33.80;;;;;;;-8.23;80.84;102197.83;87595;1284;82201;-58
2022/01/11 04:22:34;;;;;;;74.00;34.00;;;;;;;-8.18;80.81;102199.84;87566;1284;99584;-57
2022/01/11 04:24:40;;;;;;;69.10;34.80;;;;;;;-8.18;80.85;102201.06;87440;1285;86830;-67
2022/01/11 04:26:46;;;;;;;77.70;35.70;;;;;;;-8.19;80.92;102207.03;87603;1284;92966;-68
2022/01/11 04:28:52;;;;;;;74.00;35.70;;;;;;;-8.19;80.84;102208.42;87580;1284;80132;-67
2022/01/11 04:31:01;;;;;;;71.00;33.60;;;;;;;-8.17;80.83;102213.63;87622;1284;81493;-70
2022/01/11 04:33:07;;;;;;;72.00;32.10;;;;;;;-8.14;80.81;102211.64;87619;1284;100948;-69
2022/01/11 04:35:15;;;;;;;70.30;32.30;;;;;;;-8.12;80.73;102209.88;87353;1286;89548;-57
2022/01/11 04:37:22;;;;;;;76.00;32.60;;;;;;;-8.12;80.77;102213.90;87597;1284;93405;-58
2022/01/11 04:39:31;;;;;;;76.20;32.60;;;;;;;-8.14;80.70;102212.02;87568;1284;81791;-59
2022/01/11 04:41:37;;;;;;;68.80;31.10;;;;;;;-8.16;80.65;102215.70;87590;1284;82354;-58
2022/01/11 04:43:46;;;;;;;75.10;32.00;;;;;;;-8.16;80.78;102212.74;87580;1284;99860;-57
2022/01/11 04:45:53;;;;;;;72.20;31.60;;;;;;;-8.15;80.80;102213.08;87608;1284;87618;-57
2022/01/11 04:47:58;;;;;;;77.60;31.60;;;;;;;-8.19;80.78;102216.11;87592;1284;94974;-58
2022/01/11 04:50:10;;;;;;;69.80;30.80;;;;;;;-8.22;80.65;102217.04;87577;1284;79329;-57
2022/01/11 04:52:16;;;;;;;74.20;32.60;;;;;;;-8.21;80.76;102215.80;87604;1284;82957;-58
2022/01/11 04:54:25;;;;;;;67.40;31.60;;;;;;;-8.21;80.73;102218.77;87565;1284;100355;-68
2022/01/11 04:56:31;;;;;;;64.40;30.80;;;;;;;-8.22;80.75;102221.05;87566;1284;88992;-70
2022/01/11 04:58:40;;;;;;;66.30;32.20;;;;;;;-8.19;80.71;102220.83;87572;1284;93887;-70
2022/01/11 05:00:49;;;;;;;63.30;32.10;;;;;;;-8.16;80.81;102224.10;87260;1287;79907;-71
2022/01/11 05:02:59;;;;;;;66.20;32.40;;;;;;;-8.10;80.99;102219.98;87474;1285;82951;-67
2022/01/11 05:05:09;;;;;;;74.10;30.40;;;;;;;-8.12;80.92;102213.02;87580;1284;100308;-70
2022/01/11 05:07:15;;;;;;;72.40;30.80;;;;;;;-8.17;80.96;102214.84;87578;1284;88361;-70
2022/01/11 05:09:24;;;;;;;67.20;30.20;;;;;;;-8.22;80.79;102219.83;87578;1284;95460;-57
2022/01/11 05:11:30;;;;;;;65.00;30.10;;;;;;;-8.22;80.92;102215.63;87600;1284;80880;-58
2022/01/11 05:13:36;;;;;;;68.00;30.80;;;;;;;-8.17;80.88;102219.92;87608;1284;82611;-56
2022/01/11 05:15:42;;;;;;;63.80;29.70;;;;;;;-8.18;80.88;102216.27;87608;1284;99487;-69
2022/01/11 05:17:49;;;;;;;60.40;29.60;;;;;;;-8.16;80.86;102212.39;87607;1284;89081;-69
2022/01/11 05:19:57;;;;;;;68.20;29.70;;;;;;;-8.17;80.86;102211.00;87597;1284;94621;-57
2022/01/11 05:22:05;;;;;;;66.90;30.50;;;;;;;-8.17;80.84;102211.01;87558;1284;79365;-59
2022/01/11 05:24:11;;;;;;;64.80;30.80;;;;;;;-8.09;80.96;102205.98;87621;1284;82255;-68
2022/01/11 05:26:17;;;;;;;63.30;30.20;;;;;;;-8.01;80.79;102206.69;87555;1284;97008;-68
2022/01/11 05:28:23;;;;;;;57.90;28.00;;;;;;;-8.02;80.82;102207.23;87603;1284;87632;-69
2022/01/11 05:30:30;;;;;;;65.30;28.60;;;;;;;-7.96;80.87;102208.88;87600;1284;93362;-65
2022/01/11 05:32:39;;;;;;;63.50;29.30;;;;;;;-7.95;81.10;102209.39;87556;1284;78835;-57
2022/01/11 05:34:45;;;;;;;69.90;29.10;;;;;;;-7.92;80.96;102214.40;87578;1284;81894;-69
2022/01/11 05:36:54;;;;;;;57.90;27.00;;;;;;;-7.93;81.07;102208.46;87613;1284;97932;-68
2022/01/11 05:39:00;;;;;;;58.90;28.70;;;;;;;-7.93;80.89;102212.48;87633;1284;88883;-60
2022/01/11 05:41:10;;;;;;;64.30;29.60;;;;;;;-7.86;81.03;102220.04;87586;1284;95014;-58
2022/01/11 05:43:16;;;;;;;72.50;30.70;;;;;;;-7.82;80.97;102223.29;87592;1284;81615;-56
2022/01/11 05:45:22;;;;;;;58.50;29.20;;;;;;;-7.81;81.16;102229.40;87578;1284;80559;-68
2022/01/11 05:47:32;;;;;;;60.10;28.60;;;;;;;-7.80;81.21;102232.52;87610;1284;99395;-68
2022/01/11 05:49:37;;;;;;;62.60;29.40;;;;;;;-7.72;81.41;102238.16;87608;1284;89369;-69
2022/01/11 05:51:47;;;;;;;79.20;35.80;;;;;;;-7.68;81.27;102244.20;87596;1284;95303;-69
2022/01/11 05:53:56;;;;;;;87.40;37.90;;;;;;;-7.60;81.33;102244.39;87580;1284;77756;-57
2022/01/11 05:56:03;;;;;;;87.70;37.00;;;;;;;-7.55;81.34;102244.30;87581;1284;82489;-58
2022/01/11 05:58:09;;;;;;;74.60;33.20;;;;;;;-7.48;81.34;102240.64;87596;1284;100200;-58
2022/01/11 06:00:20;;;;;;;76.50;35.60;;;;;;;-7.40;81.29;102235.77;87604;1284;87235;-68
2022/01/11 06:02:28;;;;;;;77.70;34.00;;;;;;;-7.29;81.39;102241.30;87564;1284;94363;-69
2022/01/11 06:04:34;;;;;;;81.40;35.00;;;;;;;-7.16;81.51;102246.46;87579;1284;80307;-69
2022/01/11 06:06:40;;;;;;;77.80;33.30;;;;;;;-7.09;81.62;102248.59;87544;1285;83244;-67
2022/01/11 06:08:48;;;;;;;78.80;34.20;;;;;;;-7.00;81.93;102256.28;87599;1284;100053;-70
2022/01/11 06:10:57;;;;;;;80.40;34.20;;;;;;;-6.87;82.00;102263.17;87635;1284;89043;-58
2022/01/11 06:13:07;;;;;;;76.00;34.50;;;;;;;-6.73;81.91;102264.77;87327;1287;96031;-63
2022/01/11 06:15:13;;;;;;;70.40;32.70;;;;;;;-6.64;82.25;102267.89;87593;1284;78105;-68
2022/01/11 06:17:19;;;;;;;71.30;32.70;;;;;;;-6.51;82.35;102267.42;87584;1284;82490;-66
2022/01/11 06:19:26;;;;;;;79.10;33.10;;;;;;;-6.41;82.37;102273.48;87601;1284;98655;-67
2022/01/11 06:21:35;;;;;;;75.40;33.80;;;;;;;-6.28;82.36;102274.77;87609;1284;87942;-67
2022/01/11 06:23:41;;;;;;;85.20;34.60;;;;;;;-6.20;82.49;102279.99;87582;1284;93841;-67
2022/01/11 06:25:50;;;;;;;80.70;34.00;;;;;;;-6.14;82.52;102279.84;87601;1284;80704;-59
2022/01/11 06:27:56;;;;;;;79.80;35.10;;;;;;;-6.09;82.68;102281.83;87630;1284;81174;-58
2022/01/11 06:30:03;;;;;;;70.90;31.10;;;;;;;-6.02;82.40;102283.58;87569;1284;99938;-58
2022/01/11 06:32:09;;;;;;;126.80;55.00;;;;;;;-5.98;82.42;102288.73;87376;1286;89764;-58
2022/01/11 06:34:19;;;;;;;123.60;51.30;;;;;;;-5.96;82.69;102292.00;87602;1284;94443;-58
2022/01/11 06:36:25;;;;;;;70.30;32.50;;;;;;;-5.84;82.76;102298.17;87589;1284;81320;-58
2022/01/11 06:38:32;;;;;;;68.70;33.20;;;;;;;-5.74;83.13;102306.16;87635;1284;81305;-59
2022/01/11 06:40:41;;;;;;;67.90;30.70;;;;;;;-5.71;83.18;102308.16;87630;1285;99699;-67
2022/01/11 06:42:51;;;;;;;70.20;31.00;;;;;;;-5.64;83.27;102311.67;87587;1284;88051;-66
2022/01/11 06:45:00;;;;;;;66.20;30.90;;;;;;;-5.54;83.06;102311.23;87633;1284;93953;-60
2022/01/11 06:47:07;;;;;;;67.50;31.80;;;;;;;-5.49;83.13;102318.27;87590;1284;79448;-57
2022/01/11 06:49:13;;;;;;;58.70;28.10;;;;;;;-5.47;83.43;102324.91;87506;1285;83334;-62
2022/01/11 06:51:19;;;;;;;61.50;29.00;;;;;;;-5.56;83.51;102331.82;87592;1284;98078;-59
2022/01/11 06:53:25;;;;;;;66.40;29.80;;;;;;;-5.54;83.38;102334.73;87584;1284;88104;-58
2022/01/11 06:55:30;;;;;;;63.00;29.70;;;;;;;-5.48;83.28;102334.60;87597;1284;94008;-66
2022/01/11 06:57:36;;;;;;;61.30;27.80;;;;;;;-5.47;83.49;102337.00;87580;1284;79382;-66
2022/01/11 06:59:42;;;;;;;52.40;26.70;;;;;;;-5.44;83.38;102341.48;87352;1286;81981;-59
2022/01/11 07:01:51;;;;;;;51.30;27.70;;;;;;;-5.42;83.20;102343.55;87586;1284;98850;-58
2022/01/11 07:04:00;;;;;;;52.00;26.50;;;;;;;-5.41;83.44;102342.64;87610;1284;89063;-61
2022/01/11 07:06:06;;;;;;;61.10;28.20;;;;;;;-5.50;83.55;102350.95;87575;1284;95825;-70
2022/01/11 07:08:15;;;;;;;58.60;28.50;;;;;;;-5.47;83.40;102354.05;87579;1283;81016;-67
2022/01/11 07:10:21;;;;;;;49.90;25.00;;;;;;;-5.52;83.55;102358.22;87617;1284;81680;-58
2022/01/11 07:12:30;;;;;;;56.60;27.70;;;;;;;-5.54;83.81;102357.91;87588;1284;100004;-58
2022/01/11 07:14:36;;;;;;;52.70;26.20;;;;;;;-5.52;83.65;102360.31;87595;1284;89503;-57
2022/01/11 07:16:43;;;;;;;52.50;27.20;;;;;;;-5.52;83.66;102363.66;87586;1285;95243;-59
2022/01/11 07:18:50;;;;;;;48.30;26.40;;;;;;;-5.54;83.86;102362.30;87594;1284;80319;-59
2022/01/11 07:20:56;;;;;;;50.90;26.30;;;;;;;-5.53;83.82;102365.61;87614;1284;82254;-58
2022/01/11 07:23:03;;;;;;;57.20;28.60;;;;;;;-5.47;83.93;102365.64;87610;1284;99545;-58
2022/01/11 07:25:15;;;;;;;55.00;27.20;;;;;;;-5.42;83.77;102369.89;87633;1284;86763;-67
2022/01/11 07:27:24;;;;;;;55.90;28.20;;;;;;;-5.39;83.86;102375.23;87599;1284;94979;-66
2022/01/11 07:29:33;;;;;;;58.60;27.70;;;;;;;-5.32;83.88;102373.67;87578;1284;80643;-67
2022/01/11 07:31:53;;;;;;;54.70;26.70;;;;;;;-5.26;84.26;102373.85;87343;1287;83173;-68
2022/01/11 07:34:05;;;;;;;56.80;27.70;;;;;;;-5.33;84.25;102381.23;87593;1284;97920;-67
2022/01/11 07:36:15;;;;;;;57.00;29.10;;;;;;;-5.27;84.26;102384.25;87336;1287;88137;-68
2022/01/11 07:38:29;;;;;;;60.80;29.20;;;;;;;-5.19;83.87;102388.08;87340;1287;94635;-67
2022/01/11 07:40:42;;;;;;;53.10;26.70;;;;;;;-5.06;83.98;102390.17;87586;1284;81465;-68
2022/01/11 07:42:53;;;;;;;48.00;24.20;;;;;;;-4.94;84.01;102382.96;87528;1285;82779;-59
2022/01/11 07:45:03;;;;;;;46.00;23.10;;;;;;;-4.84;84.00;102377.43;87577;1284;100311;-59
2022/01/11 07:47:09;;;;;;;44.90;21.30;;;;;;;-4.72;83.71;102380.60;87605;1284;88962;-58
2022/01/11 07:49:15;;;;;;;44.70;21.50;;;;;;;-4.66;83.67;102373.04;87547;1284;95295;-59
2022/01/11 07:51:20;;;;;;;41.50;21.00;;;;;;;-4.55;83.75;102368.34;87586;1284;79535;-59
2022/01/11 07:53:26;;;;;;;42.70;21.60;;;;;;;-4.49;83.31;102367.96;87599;1284;82731;-57
2022/01/11 07:55:33;;;;;;;41.40;21.90;;;;;;;-4.43;83.51;102369.71;87579;1284;100054;-59
2022/01/11 07:57:42;;;;;;;43.50;21.90;;;;;;;-4.36;83.60;102377.94;87594;1284;87793;-59
2022/01/11 07:59:48;;;;;;;45.40;22.60;;;;;;;-4.32;83.57;102375.51;87595;1284;95462;-59
2022/01/11 08:01:54;;;;;;;44.50;22.30;;;;;;;-4.23;83.46;102382.27;87584;1284;77774;-57
2022/01/11 08:04:03;;;;;;;48.50;24.40;;;;;;;-4.20;83.32;102386.94;87597;1284;79603;-58
2022/01/11 08:06:09;;;;;;;51.60;25.60;;;;;;;-4.23;83.42;102388.09;87550;1284;100244;-58
2022/01/11 08:08:15;;;;;;;53.40;26.40;;;;;;;-4.26;83.89;102390.63;87604;1284;87917;-58
2022/01/11 08:10:21;;;;;;;54.50;25.70;;;;;;;-4.21;83.68;102393.29;87577;1284;95442;-67
2022/01/11 08:12:27;;;;;;;51.50;24.50;;;;;;;-4.19;83.65;102393.95;87311;1287;76325;-68
2022/01/11 08:14:32;;;;;;;51.60;28.50;;;;;;;-4.16;83.67;102391.20;87483;1284;82833;-67
2022/01/11 08:16:39;;;;;;;50.90;27.10;;;;;;;-4.14;83.65;102391.52;87599;1284;98235;-66
2022/01/11 08:18:44;;;;;;;56.90;29.60;;;;;;;-4.09;83.61;102392.41;87610;1284;89290;-66
2022/01/11 08:20:50;;;;;;;58.40;29.80;;;;;;;-4.07;83.69;102392.86;87581;1284;93887;-58
2022/01/11 08:22:56;;;;;;;52.70;28.70;;;;;;;-4.08;84.09;102398.53;87557;1284;80654;-68
2022/01/11 08:25:03;;;;;;;58.70;28.60;;;;;;;-4.13;83.79;102393.75;87602;1284;81444;-59
2022/01/11 08:27:10;;;;;;;66.60;30.50;;;;;;;-4.11;83.83;102396.17;87590;1284;99948;-59
2022/01/11 08:29:18;;;;;;;51.20;27.90;;;;;;;-4.11;84.15;102400.02;87599;1284;87633;-67
2022/01/11 08:31:24;;;;;;;51.90;26.70;;;;;;;-4.12;83.87;102400.41;87435;1286;94609;-67
2022/01/11 08:33:30;;;;;;;50.50;27.10;;;;;;;-4.08;84.17;102398.54;87576;1284;79265;-66
2022/01/11 08:35:37;;;;;;;47.60;24.50;;;;;;;-4.04;84.32;102399.10;87588;1284;80992;-66
2022/01/11 08:37:46;;;;;;;48.60;24.60;;;;;;;-3.95;84.34;102408.34;87466;1285;99820;-67
2022/01/11 08:39:55;;;;;;;52.80;25.50;;;;;;;-3.89;84.56;102409.36;87634;1284;86672;-67
2022/01/11 08:42:02;;;;;;;48.70;27.00;;;;;;;-3.78;84.71;102410.95;87574;1284;93538;-68
2022/01/11 08:44:11;;;;;;;53.50;26.90;;;;;;;-3.70;84.55;102403.98;87624;1284;77196;-67
2022/01/11 08:46:17;;;;;;;52.50;26.30;;;;;;;-3.63;84.52;102402.88;87595;1284;83047;-67
2022/01/11 08:48:26;;;;;;;52.90;27.40;;;;;;;-3.54;84.52;102404.00;87607;1284;99205;-67
2022/01/11 08:50:33;;;;;;;53.60;27.00;;;;;;;-3.50;84.65;102405.09;87595;1284;88950;-57
2022/01/11 08:52:39;;;;;;;53.20;27.00;;;;;;;-3.48;84.52;102405.23;87587;1284;95103;-58
2022/01/11 08:54:46;;;;;;;50.30;25.50;;;;;;;-3.41;84.50;102404.10;87520;1285;79644;-58
2022/01/11 08:56:55;;;;;;;52.70;25.70;;;;;;;-3.41;84.37;102397.91;87603;1284;79752;-62
2022/01/11 08:59:01;;;;;;;53.50;26.80;;;;;;;-3.42;84.31;102401.13;87625;1284;99630;-67
2022/01/11 09:01:12;;;;;;;53.20;25.10;;;;;;;-3.49;84.17;102408.04;87581;1284;89205;-67
2022/01/11 09:03:19;;;;;;;49.80;25.80;;;;;;;-3.42;84.15;102406.58;87598;1284;95881;-66
2022/01/11 09:05:25;;;;;;;48.60;24.50;;;;;;;-3.29;84.08;102408.61;87581;1284;79846;-59
2022/01/11 09:07:31;;;;;;;52.10;24.80;;;;;;;-3.25;84.20;102409.33;87604;1284;83017;-59
2022/01/11 09:09:37;;;;;;;55.20;25.90;;;;;;;-3.15;84.51;102406.00;87600;1284;97523;-59
2022/01/11 09:11:47;;;;;;;56.90;28.30;;;;;;;-3.03;84.23;102402.92;87599;1284;88621;-59
2022/01/11 09:13:54;;;;;;;56.00;27.40;;;;;;;-2.90;84.18;102399.11;87604;1284;93791;-59
2022/01/11 09:16:03;;;;;;;53.10;27.10;;;;;;;-2.90;83.98;102398.09;87597;1284;77108;-58
2022/01/11 09:18:10;;;;;;;53.90;26.80;;;;;;;-2.90;83.93;102397.19;87586;1284;82136;-58
2022/01/11 09:20:17;;;;;;;49.50;25.70;;;;;;;-2.90;83.94;102396.67;87611;1283;99834;-58
2022/01/11 09:22:24;;;;;;;56.40;26.80;;;;;;;-2.80;83.98;102392.40;87585;1284;88826;-59
2022/01/11 09:24:30;;;;;;;53.90;29.60;;;;;;;-2.72;84.12;102393.35;87319;1287;94887;-68
2022/01/11 09:26:37;;;;;;;49.70;27.10;;;;;;;-2.65;83.81;102397.14;87582;1284;78425;-67
2022/01/11 09:28:47;;;;;;;45.10;24.60;;;;;;;-2.59;83.68;102397.61;87614;1284;82428;-68
2022/01/11 09:30:54;;;;;;;46.60;22.90;;;;;;;-2.53;83.70;102393.88;87605;1284;97513;-68
2022/01/11 09:33:04;;;;;;;46.20;23.30;;;;;;;-2.50;83.62;102392.89;87583;1284;87015;-68
2022/01/11 09:35:14;;;;;;;48.60;24.40;;;;;;;-2.42;83.96;102390.81;87564;1284;94906;-59
2022/01/11 09:37:23;;;;;;;46.10;23.10;;;;;;;-2.32;83.83;102391.13;87581;1284;80232;-58
2022/01/11 09:39:33;;;;;;;43.50;22.30;;;;;;;-2.22;84.03;102391.98;87606;1284;81395;-56
2022/01/11 09:41:43;;;;;;;39.50;21.90;;;;;;;-2.07;83.83;102386.98;87582;1284;98588;-57
2022/01/11 09:43:49;;;;;;;41.10;22.60;;;;;;;-1.98;83.86;102389.95;87590;1284;87563;-60